sensor_id;sensor_type;location;lat;lon;timestamp;P1;durP1;ratioP1;P2;durP2;ratioP2
43327;SDS011;28923;45.412;10.852;2022-07-29T00:01:13;1.02;;;0.90;;
43327;SDS011;28923;45.412;10.852;2022-07-29T00:03:38;1.42;;;1.00;;
43327;SDS011;28923;45.412;10.852;2022-07-29T00:06:04;1.15;;;0.82;;
43327;SDS011;28923;45.412;10.852;2022-07-29T00:08:29;1.23;;;0.93;;
43327;SDS011;28923;45.412;10.852;2022-07-29T00:10:55;0.80;;;0.80;;
43327;SDS011;28923;45.412;10.852;2022-07-29T00:13:20;1.80;;;0.98;;
43327;SDS011;28923;45.412;10.852;2022-07-29T00:15:45;0.70;;;0.70;;
43327;SDS011;28923;45.412;10.852;2022-07-29T00:18:11;1.85;;;0.82;;
43327;SDS011;28923;45.412;10.852;2022-07-29T00:20:36;0.90;;;0.70;;
43327;SDS011;28923;45.412;10.852;2022-07-29T00:23:01;1.25;;;1.00;;
43327;SDS011;28923;45.412;10.852;2022-07-29T00:25:27;0.88;;;0.85;;
43327;SDS011;28923;45.412;10.852;2022-07-29T00:27:52;0.80;;;0.80;;
43327;SDS011;28923;45.412;10.852;2022-07-29T00:30:17;0.80;;;0.80;;
43327;SDS011;28923;45.412;10.852;2022-07-29T00:32:43;1.13;;;0.85;;
43327;SDS011;28923;45.412;10.852;2022-07-29T00:35:08;0.80;;;0.70;;
43327;SDS011;28923;45.412;10.852;2022-07-29T00:37:52;0.70;;;0.68;;
43327;SDS011;28923;45.412;10.852;2022-07-29T00:40:18;1.15;;;0.63;;
43327;SDS011;28923;45.412;10.852;2022-07-29T00:45:09;0.80;;;0.80;;
43327;SDS011;28923;45.412;10.852;2022-07-29T00:47:34;0.70;;;0.70;;
43327;SDS011;28923;45.412;10.852;2022-07-29T00:50:00;0.90;;;0.75;;
43327;SDS011;28923;45.412;10.852;2022-07-29T00:52:25;0.88;;;0.88;;
43327;SDS011;28923;45.412;10.852;2022-07-29T00:54:51;6.03;;;0.73;;
43327;SDS011;28923;45.412;10.852;2022-07-29T00:57:16;0.70;;;0.70;;
43327;SDS011;28923;45.412;10.852;2022-07-29T00:59:41;0.50;;;0.50;;
43327;SDS011;28923;45.412;10.852;2022-07-29T01:02:07;0.45;;;0.45;;
43327;SDS011;28923;45.412;10.852;2022-07-29T01:04:32;0.75;;;0.60;;
43327;SDS011;28923;45.412;10.852;2022-07-29T01:06:59;1.58;;;0.40;;
43327;SDS011;28923;45.412;10.852;2022-07-29T01:09:25;0.50;;;0.50;;
43327;SDS011;28923;45.412;10.852;2022-07-29T01:11:51;0.93;;;0.60;;
43327;SDS011;28923;45.412;10.852;2022-07-29T01:14:17;0.60;;;0.60;;
43327;SDS011;28923;45.412;10.852;2022-07-29T01:16:51;0.50;;;0.50;;
43327;SDS011;28923;45.412;10.852;2022-07-29T01:19:33;1.35;;;0.55;;
43327;SDS011;28923;45.412;10.852;2022-07-29T01:24:39;0.50;;;0.50;;
43327;SDS011;28923;45.412;10.852;2022-07-29T01:29:44;1.25;;;0.50;;
43327;SDS011;28923;45.412;10.852;2022-07-29T01:32:10;0.50;;;0.40;;
43327;SDS011;28923;45.412;10.852;2022-07-29T01:37:12;0.40;;;0.40;;
43327;SDS011;28923;45.412;10.852;2022-07-29T01:39:38;0.45;;;0.40;;
43327;SDS011;28923;45.412;10.852;2022-07-29T01:42:51;0.43;;;0.32;;
43327;SDS011;28923;45.412;10.852;2022-07-29T01:44:57;0.63;;;0.32;;
43327;SDS011;28923;45.412;10.852;2022-07-29T01:47:25;0.40;;;0.40;;
43327;SDS011;28923;45.412;10.852;2022-07-29T01:49:52;0.50;;;0.40;;
43327;SDS011;28923;45.412;10.852;2022-07-29T01:52:27;0.35;;;0.30;;
43327;SDS011;28923;45.412;10.852;2022-07-29T01:54:57;0.28;;;0.28;;
43327;SDS011;28923;45.412;10.852;2022-07-29T01:57:28;0.43;;;0.32;;
43327;SDS011;28923;45.412;10.852;2022-07-29T01:59:54;0.30;;;0.30;;
43327;SDS011;28923;45.412;10.852;2022-07-29T02:02:21;0.63;;;0.30;;
43327;SDS011;28923;45.412;10.852;2022-07-29T02:04:47;0.32;;;0.30;;
43327;SDS011;28923;45.412;10.852;2022-07-29T02:07:15;0.55;;;0.30;;
43327;SDS011;28923;45.412;10.852;2022-07-29T02:09:42;0.30;;;0.30;;
43327;SDS011;28923;45.412;10.852;2022-07-29T02:12:08;0.30;;;0.30;;
43327;SDS011;28923;45.412;10.852;2022-07-29T02:14:36;0.40;;;0.40;;
43327;SDS011;28923;45.412;10.852;2022-07-29T02:17:02;0.30;;;0.30;;
43327;SDS011;28923;45.412;10.852;2022-07-29T02:19:28;0.82;;;0.40;;
43327;SDS011;28923;45.412;10.852;2022-07-29T02:21:55;0.28;;;0.28;;
43327;SDS011;28923;45.412;10.852;2022-07-29T02:24:21;0.30;;;0.30;;
43327;SDS011;28923;45.412;10.852;2022-07-29T02:26:47;0.63;;;0.38;;
43327;SDS011;28923;45.412;10.852;2022-07-29T02:29:14;0.30;;;0.25;;
43327;SDS011;28923;45.412;10.852;2022-07-29T02:31:40;1.90;;;0.40;;
43327;SDS011;28923;45.412;10.852;2022-07-29T02:34:08;0.50;;;0.30;;
43327;SDS011;28923;45.412;10.852;2022-07-29T02:36:34;0.20;;;0.20;;
43327;SDS011;28923;45.412;10.852;2022-07-29T02:39:00;0.30;;;0.30;;
43327;SDS011;28923;45.412;10.852;2022-07-29T02:41:30;0.47;;;0.30;;
43327;SDS011;28923;45.412;10.852;2022-07-29T02:44:01;0.88;;;0.35;;
43327;SDS011;28923;45.412;10.852;2022-07-29T02:46:29;0.40;;;0.40;;
43327;SDS011;28923;45.412;10.852;2022-07-29T02:51:33;0.15;;;0.15;;
43327;SDS011;28923;45.412;10.852;2022-07-29T02:53:58;0.47;;;0.30;;
43327;SDS011;28923;45.412;10.852;2022-07-29T02:56:28;0.40;;;0.40;;
43327;SDS011;28923;45.412;10.852;2022-07-29T02:59:01;0.30;;;0.27;;
43327;SDS011;28923;45.412;10.852;2022-07-29T03:01:30;0.32;;;0.32;;
43327;SDS011;28923;45.412;10.852;2022-07-29T03:03:56;0.40;;;0.20;;
43327;SDS011;28923;45.412;10.852;2022-07-29T03:06:23;0.60;;;0.40;;
43327;SDS011;28923;45.412;10.852;2022-07-29T03:08:49;0.40;;;0.30;;
43327;SDS011;28923;45.412;10.852;2022-07-29T03:11:15;0.30;;;0.30;;
43327;SDS011;28923;45.412;10.852;2022-07-29T03:13:42;0.20;;;0.20;;
43327;SDS011;28923;45.412;10.852;2022-07-29T03:16:07;0.40;;;0.40;;
43327;SDS011;28923;45.412;10.852;2022-07-29T03:18:33;0.35;;;0.35;;
43327;SDS011;28923;45.412;10.852;2022-07-29T03:20:59;1.75;;;0.30;;
43327;SDS011;28923;45.412;10.852;2022-07-29T03:23:24;0.22;;;0.20;;
43327;SDS011;28923;45.412;10.852;2022-07-29T03:25:53;0.30;;;0.30;;
43327;SDS011;28923;45.412;10.852;2022-07-29T03:28:18;0.20;;;0.20;;
43327;SDS011;28923;45.412;10.852;2022-07-29T03:30:44;0.40;;;0.30;;
43327;SDS011;28923;45.412;10.852;2022-07-29T03:33:10;0.22;;;0.10;;
43327;SDS011;28923;45.412;10.852;2022-07-29T03:35:35;0.20;;;0.20;;
43327;SDS011;28923;45.412;10.852;2022-07-29T03:38:01;0.30;;;0.20;;
43327;SDS011;28923;45.412;10.852;2022-07-29T03:40:36;1.92;;;0.30;;
43327;SDS011;28923;45.412;10.852;2022-07-29T03:43:02;0.40;;;0.30;;
43327;SDS011;28923;45.412;10.852;2022-07-29T03:45:28;0.40;;;0.25;;
43327;SDS011;28923;45.412;10.852;2022-07-29T03:47:56;0.30;;;0.28;;
43327;SDS011;28923;45.412;10.852;2022-07-29T03:50:22;0.20;;;0.20;;
43327;SDS011;28923;45.412;10.852;2022-07-29T03:52:48;0.30;;;0.20;;
43327;SDS011;28923;45.412;10.852;2022-07-29T03:55:14;0.40;;;0.20;;
43327;SDS011;28923;45.412;10.852;2022-07-29T03:57:40;0.20;;;0.20;;
43327;SDS011;28923;45.412;10.852;2022-07-29T04:00:06;0.30;;;0.30;;
43327;SDS011;28923;45.412;10.852;2022-07-29T04:02:32;1.75;;;0.30;;
43327;SDS011;28923;45.412;10.852;2022-07-29T04:04:57;0.20;;;0.20;;
43327;SDS011;28923;45.412;10.852;2022-07-29T04:07:23;0.30;;;0.30;;
43327;SDS011;28923;45.412;10.852;2022-07-29T04:09:48;1.35;;;0.20;;
43327;SDS011;28923;45.412;10.852;2022-07-29T04:12:13;0.77;;;0.20;;
43327;SDS011;28923;45.412;10.852;2022-07-29T04:14:39;0.20;;;0.15;;
43327;SDS011;28923;45.412;10.852;2022-07-29T04:17:04;0.82;;;0.20;;
43327;SDS011;28923;45.412;10.852;2022-07-29T04:19:30;0.20;;;0.20;;
43327;SDS011;28923;45.412;10.852;2022-07-29T04:21:56;0.30;;;0.20;;
43327;SDS011;28923;45.412;10.852;2022-07-29T04:24:21;0.28;;;0.22;;
43327;SDS011;28923;45.412;10.852;2022-07-29T04:26:47;0.30;;;0.30;;
43327;SDS011;28923;45.412;10.852;2022-07-29T04:29:13;1.25;;;0.68;;
43327;SDS011;28923;45.412;10.852;2022-07-29T04:31:39;2.65;;;1.30;;
43327;SDS011;28923;45.412;10.852;2022-07-29T04:34:05;1.75;;;1.48;;
43327;SDS011;28923;45.412;10.852;2022-07-29T04:36:30;4.03;;;1.80;;
43327;SDS011;28923;45.412;10.852;2022-07-29T04:38:55;4.90;;;1.45;;
43327;SDS011;28923;45.412;10.852;2022-07-29T04:41:21;2.63;;;1.30;;
43327;SDS011;28923;45.412;10.852;2022-07-29T04:43:46;1.60;;;1.30;;
43327;SDS011;28923;45.412;10.852;2022-07-29T04:46:11;2.50;;;1.63;;
43327;SDS011;28923;45.412;10.852;2022-07-29T04:48:37;1.30;;;1.20;;
43327;SDS011;28923;45.412;10.852;2022-07-29T04:51:02;3.58;;;1.40;;
43327;SDS011;28923;45.412;10.852;2022-07-29T04:53:28;2.38;;;1.50;;
43327;SDS011;28923;45.412;10.852;2022-07-29T04:55:53;4.43;;;1.70;;
43327;SDS011;28923;45.412;10.852;2022-07-29T04:58:19;2.33;;;1.40;;
43327;SDS011;28923;45.412;10.852;2022-07-29T05:00:44;3.28;;;1.80;;
43327;SDS011;28923;45.412;10.852;2022-07-29T05:03:09;2.80;;;1.85;;
43327;SDS011;28923;45.412;10.852;2022-07-29T05:05:35;2.25;;;1.70;;
43327;SDS011;28923;45.412;10.852;2022-07-29T05:08:00;3.28;;;1.50;;
43327;SDS011;28923;45.412;10.852;2022-07-29T05:10:26;1.90;;;1.25;;
43327;SDS011;28923;45.412;10.852;2022-07-29T05:12:51;3.10;;;1.40;;
43327;SDS011;28923;45.412;10.852;2022-07-29T05:15:16;2.63;;;1.67;;
43327;SDS011;28923;45.412;10.852;2022-07-29T05:17:43;3.85;;;1.73;;
43327;SDS011;28923;45.412;10.852;2022-07-29T05:20:08;3.05;;;1.90;;
43327;SDS011;28923;45.412;10.852;2022-07-29T05:22:34;3.17;;;1.50;;
43327;SDS011;28923;45.412;10.852;2022-07-29T05:24:59;4.93;;;1.42;;
43327;SDS011;28923;45.412;10.852;2022-07-29T05:27:24;3.00;;;1.52;;
43327;SDS011;28923;45.412;10.852;2022-07-29T05:29:50;1.80;;;1.70;;
43327;SDS011;28923;45.412;10.852;2022-07-29T05:32:15;3.25;;;1.83;;
43327;SDS011;28923;45.412;10.852;2022-07-29T05:34:41;3.95;;;1.80;;
43327;SDS011;28923;45.412;10.852;2022-07-29T05:37:06;3.05;;;2.35;;
43327;SDS011;28923;45.412;10.852;2022-07-29T05:39:32;4.20;;;2.10;;
43327;SDS011;28923;45.412;10.852;2022-07-29T05:41:57;4.10;;;2.35;;
43327;SDS011;28923;45.412;10.852;2022-07-29T05:44:22;3.33;;;1.92;;
43327;SDS011;28923;45.412;10.852;2022-07-29T05:46:48;6.85;;;2.35;;
43327;SDS011;28923;45.412;10.852;2022-07-29T05:49:13;5.55;;;2.30;;
43327;SDS011;28923;45.412;10.852;2022-07-29T05:51:38;6.28;;;2.33;;
43327;SDS011;28923;45.412;10.852;2022-07-29T05:54:04;4.57;;;2.42;;
43327;SDS011;28923;45.412;10.852;2022-07-29T05:56:29;6.45;;;2.35;;
43327;SDS011;28923;45.412;10.852;2022-07-29T05:58:55;6.95;;;2.70;;
43327;SDS011;28923;45.412;10.852;2022-07-29T06:01:20;6.07;;;2.42;;
43327;SDS011;28923;45.412;10.852;2022-07-29T06:03:45;7.07;;;3.08;;
43327;SDS011;28923;45.412;10.852;2022-07-29T06:06:11;4.57;;;2.78;;
43327;SDS011;28923;45.412;10.852;2022-07-29T06:08:36;10.77;;;2.67;;
43327;SDS011;28923;45.412;10.852;2022-07-29T06:11:02;6.45;;;2.88;;
43327;SDS011;28923;45.412;10.852;2022-07-29T06:13:28;4.70;;;2.80;;
43327;SDS011;28923;45.412;10.852;2022-07-29T06:15:54;3.72;;;2.25;;
43327;SDS011;28923;45.412;10.852;2022-07-29T06:18:19;3.70;;;2.20;;
43327;SDS011;28923;45.412;10.852;2022-07-29T06:20:46;13.05;;;2.30;;
43327;SDS011;28923;45.412;10.852;2022-07-29T06:23:11;4.95;;;2.65;;
43327;SDS011;28923;45.412;10.852;2022-07-29T06:25:37;4.75;;;2.25;;
43327;SDS011;28923;45.412;10.852;2022-07-29T06:28:02;5.57;;;2.10;;
43327;SDS011;28923;45.412;10.852;2022-07-29T06:30:28;4.65;;;2.10;;
43327;SDS011;28923;45.412;10.852;2022-07-29T06:32:54;3.53;;;2.13;;
43327;SDS011;28923;45.412;10.852;2022-07-29T06:35:19;3.75;;;2.20;;
43327;SDS011;28923;45.412;10.852;2022-07-29T06:37:45;6.63;;;2.38;;
43327;SDS011;28923;45.412;10.852;2022-07-29T06:40:11;4.80;;;1.85;;
43327;SDS011;28923;45.412;10.852;2022-07-29T06:42:55;3.30;;;1.80;;
43327;SDS011;28923;45.412;10.852;2022-07-29T06:45:20;4.20;;;1.70;;
43327;SDS011;28923;45.412;10.852;2022-07-29T06:47:46;4.35;;;1.85;;
43327;SDS011;28923;45.412;10.852;2022-07-29T06:50:11;2.95;;;2.00;;
43327;SDS011;28923;45.412;10.852;2022-07-29T06:52:40;3.63;;;1.75;;
43327;SDS011;28923;45.412;10.852;2022-07-29T06:55:06;6.25;;;2.20;;
43327;SDS011;28923;45.412;10.852;2022-07-29T06:57:31;4.30;;;2.10;;
43327;SDS011;28923;45.412;10.852;2022-07-29T06:59:57;3.97;;;2.42;;
43327;SDS011;28923;45.412;10.852;2022-07-29T07:02:22;4.68;;;1.95;;
43327;SDS011;28923;45.412;10.852;2022-07-29T07:04:47;4.30;;;2.20;;
43327;SDS011;28923;45.412;10.852;2022-07-29T07:07:13;2.10;;;1.90;;
43327;SDS011;28923;45.412;10.852;2022-07-29T07:09:39;4.63;;;2.10;;
43327;SDS011;28923;45.412;10.852;2022-07-29T07:12:05;4.43;;;2.25;;
43327;SDS011;28923;45.412;10.852;2022-07-29T07:14:31;5.00;;;2.20;;
43327;SDS011;28923;45.412;10.852;2022-07-29T07:16:56;4.07;;;2.20;;
43327;SDS011;28923;45.412;10.852;2022-07-29T07:19:22;3.80;;;2.25;;
43327;SDS011;28923;45.412;10.852;2022-07-29T07:21:47;4.03;;;2.63;;
43327;SDS011;28923;45.412;10.852;2022-07-29T07:24:12;5.95;;;2.30;;
43327;SDS011;28923;45.412;10.852;2022-07-29T07:26:38;7.30;;;3.13;;
43327;SDS011;28923;45.412;10.852;2022-07-29T07:29:04;6.78;;;2.60;;
43327;SDS011;28923;45.412;10.852;2022-07-29T07:31:30;3.80;;;2.70;;
43327;SDS011;28923;45.412;10.852;2022-07-29T07:33:55;6.05;;;2.28;;
43327;SDS011;28923;45.412;10.852;2022-07-29T07:36:21;4.40;;;2.10;;
43327;SDS011;28923;45.412;10.852;2022-07-29T07:38:46;3.50;;;2.03;;
43327;SDS011;28923;45.412;10.852;2022-07-29T07:41:12;4.63;;;1.98;;
43327;SDS011;28923;45.412;10.852;2022-07-29T07:43:37;3.25;;;1.83;;
43327;SDS011;28923;45.412;10.852;2022-07-29T07:46:03;5.28;;;2.28;;
43327;SDS011;28923;45.412;10.852;2022-07-29T07:48:29;2.35;;;1.85;;
43327;SDS011;28923;45.412;10.852;2022-07-29T07:50:54;5.30;;;2.00;;
43327;SDS011;28923;45.412;10.852;2022-07-29T07:53:20;3.95;;;1.92;;
43327;SDS011;28923;45.412;10.852;2022-07-29T07:55:45;3.65;;;1.88;;
43327;SDS011;28923;45.412;10.852;2022-07-29T07:58:11;3.47;;;1.75;;
43327;SDS011;28923;45.412;10.852;2022-07-29T08:00:36;3.25;;;1.58;;
43327;SDS011;28923;45.412;10.852;2022-07-29T08:03:02;2.47;;;1.70;;
43327;SDS011;28923;45.412;10.852;2022-07-29T08:05:27;2.78;;;1.75;;
43327;SDS011;28923;45.412;10.852;2022-07-29T08:07:53;5.65;;;1.73;;
43327;SDS011;28923;45.412;10.852;2022-07-29T08:10:19;3.05;;;1.65;;
43327;SDS011;28923;45.412;10.852;2022-07-29T08:13:03;3.20;;;1.52;;
43327;SDS011;28923;45.412;10.852;2022-07-29T08:15:29;2.00;;;1.23;;
43327;SDS011;28923;45.412;10.852;2022-07-29T08:17:54;3.30;;;1.40;;
43327;SDS011;28923;45.412;10.852;2022-07-29T08:20:19;3.30;;;1.40;;
43327;SDS011;28923;45.412;10.852;2022-07-29T08:22:45;3.72;;;1.50;;
43327;SDS011;28923;45.412;10.852;2022-07-29T08:25:10;3.15;;;1.20;;
43327;SDS011;28923;45.412;10.852;2022-07-29T08:27:35;2.75;;;1.40;;
43327;SDS011;28923;45.412;10.852;2022-07-29T08:30:01;1.98;;;1.40;;
43327;SDS011;28923;45.412;10.852;2022-07-29T08:32:26;3.90;;;1.77;;
43327;SDS011;28923;45.412;10.852;2022-07-29T08:34:53;2.35;;;1.30;;
43327;SDS011;28923;45.412;10.852;2022-07-29T08:37:18;2.50;;;1.40;;
43327;SDS011;28923;45.412;10.852;2022-07-29T08:39:44;1.20;;;1.10;;
43327;SDS011;28923;45.412;10.852;2022-07-29T08:42:10;2.22;;;1.00;;
43327;SDS011;28923;45.412;10.852;2022-07-29T08:44:36;1.38;;;1.20;;
43327;SDS011;28923;45.412;10.852;2022-07-29T08:47:02;2.38;;;1.30;;
43327;SDS011;28923;45.412;10.852;2022-07-29T08:49:28;1.85;;;1.13;;
43327;SDS011;28923;45.412;10.852;2022-07-29T08:51:53;0.75;;;0.75;;
43327;SDS011;28923;45.412;10.852;2022-07-29T08:54:19;1.20;;;1.00;;
43327;SDS011;28923;45.412;10.852;2022-07-29T08:56:48;1.98;;;1.00;;
43327;SDS011;28923;45.412;10.852;2022-07-29T08:59:14;1.83;;;1.08;;
43327;SDS011;28923;45.412;10.852;2022-07-29T09:01:40;2.65;;;1.20;;
43327;SDS011;28923;45.412;10.852;2022-07-29T09:04:10;1.30;;;0.98;;
43327;SDS011;28923;45.412;10.852;2022-07-29T09:06:36;2.78;;;1.10;;
43327;SDS011;28923;45.412;10.852;2022-07-29T09:09:03;1.25;;;1.00;;
43327;SDS011;28923;45.412;10.852;2022-07-29T09:11:29;1.40;;;1.00;;
43327;SDS011;28923;45.412;10.852;2022-07-29T09:13:55;1.95;;;1.10;;
43327;SDS011;28923;45.412;10.852;2022-07-29T09:16:21;0.80;;;0.70;;
43327;SDS011;28923;45.412;10.852;2022-07-29T09:18:46;1.05;;;0.98;;
43327;SDS011;28923;45.412;10.852;2022-07-29T09:21:13;0.82;;;0.80;;
43327;SDS011;28923;45.412;10.852;2022-07-29T09:26:31;0.82;;;0.80;;
43327;SDS011;28923;45.412;10.852;2022-07-29T09:28:57;1.05;;;1.00;;
43327;SDS011;28923;45.412;10.852;2022-07-29T09:31:31;1.90;;;1.00;;
43327;SDS011;28923;45.412;10.852;2022-07-29T09:33:58;2.20;;;0.90;;
43327;SDS011;28923;45.412;10.852;2022-07-29T09:36:23;2.30;;;0.90;;
43327;SDS011;28923;45.412;10.852;2022-07-29T09:39:02;1.25;;;0.80;;
43327;SDS011;28923;45.412;10.852;2022-07-29T09:41:28;1.55;;;0.98;;
43327;SDS011;28923;45.412;10.852;2022-07-29T09:43:54;1.08;;;0.82;;
43327;SDS011;28923;45.412;10.852;2022-07-29T09:46:20;0.73;;;0.70;;
43327;SDS011;28923;45.412;10.852;2022-07-29T09:48:48;1.10;;;0.88;;
43327;SDS011;28923;45.412;10.852;2022-07-29T09:51:30;1.10;;;1.00;;
43327;SDS011;28923;45.412;10.852;2022-07-29T09:53:55;0.93;;;0.88;;
43327;SDS011;28923;45.412;10.852;2022-07-29T09:56:37;1.77;;;0.70;;
43327;SDS011;28923;45.412;10.852;2022-07-29T09:59:06;1.75;;;1.52;;
43327;SDS011;28923;45.412;10.852;2022-07-29T10:01:32;1.33;;;1.00;;
43327;SDS011;28923;45.412;10.852;2022-07-29T10:03:57;2.35;;;1.10;;
43327;SDS011;28923;45.412;10.852;2022-07-29T10:06:23;4.72;;;1.02;;
43327;SDS011;28923;45.412;10.852;2022-07-29T10:08:48;2.28;;;1.00;;
43327;SDS011;28923;45.412;10.852;2022-07-29T10:11:15;2.72;;;1.30;;
43327;SDS011;28923;45.412;10.852;2022-07-29T10:13:42;2.78;;;1.30;;
43327;SDS011;28923;45.412;10.852;2022-07-29T10:16:08;2.50;;;1.10;;
43327;SDS011;28923;45.412;10.852;2022-07-29T10:18:33;4.07;;;1.42;;
43327;SDS011;28923;45.412;10.852;2022-07-29T10:20:59;6.82;;;1.55;;
43327;SDS011;28923;45.412;10.852;2022-07-29T10:23:26;6.63;;;1.15;;
43327;SDS011;28923;45.412;10.852;2022-07-29T10:25:52;4.70;;;1.17;;
43327;SDS011;28923;45.412;10.852;2022-07-29T10:28:18;4.30;;;1.30;;
43327;SDS011;28923;45.412;10.852;2022-07-29T10:30:43;3.17;;;1.30;;
43327;SDS011;28923;45.412;10.852;2022-07-29T10:43:29;1.27;;;1.08;;
43327;SDS011;28923;45.412;10.852;2022-07-29T10:45:59;2.45;;;1.33;;
43327;SDS011;28923;45.412;10.852;2022-07-29T10:48:24;3.53;;;1.00;;
43327;SDS011;28923;45.412;10.852;2022-07-29T10:50:54;1.67;;;0.90;;
43327;SDS011;28923;45.412;10.852;2022-07-29T10:53:20;3.72;;;1.15;;
43327;SDS011;28923;45.412;10.852;2022-07-29T10:55:46;1.42;;;1.08;;
43327;SDS011;28923;45.412;10.852;2022-07-29T10:58:17;1.75;;;1.02;;
43327;SDS011;28923;45.412;10.852;2022-07-29T11:00:44;1.48;;;0.95;;
43327;SDS011;28923;45.412;10.852;2022-07-29T11:03:09;2.05;;;1.02;;
43327;SDS011;28923;45.412;10.852;2022-07-29T11:05:56;2.30;;;0.80;;
43327;SDS011;28923;45.412;10.852;2022-07-29T11:08:22;1.25;;;0.93;;
43327;SDS011;28923;45.412;10.852;2022-07-29T11:10:51;1.77;;;1.15;;
43327;SDS011;28923;45.412;10.852;2022-07-29T11:16:00;1.70;;;1.02;;
43327;SDS011;28923;45.412;10.852;2022-07-29T11:18:26;2.10;;;0.82;;
43327;SDS011;28923;45.412;10.852;2022-07-29T11:20:51;1.73;;;0.85;;
43327;SDS011;28923;45.412;10.852;2022-07-29T11:34:17;1.92;;;1.30;;
43327;SDS011;28923;45.412;10.852;2022-07-29T11:39:28;2.50;;;1.05;;
43327;SDS011;28923;45.412;10.852;2022-07-29T11:41:54;0.73;;;0.73;;
43327;SDS011;28923;45.412;10.852;2022-07-29T11:44:54;1.77;;;1.08;;
43327;SDS011;28923;45.412;10.852;2022-07-29T11:47:23;0.85;;;0.82;;
43327;SDS011;28923;45.412;10.852;2022-07-29T11:49:49;0.82;;;0.80;;
43327;SDS011;28923;45.412;10.852;2022-07-29T11:52:16;1.27;;;0.85;;
43327;SDS011;28923;45.412;10.852;2022-07-29T11:54:41;1.90;;;1.10;;
43327;SDS011;28923;45.412;10.852;2022-07-29T11:57:07;0.80;;;0.80;;
43327;SDS011;28923;45.412;10.852;2022-07-29T11:59:38;1.83;;;1.00;;
43327;SDS011;28923;45.412;10.852;2022-07-29T12:02:04;1.48;;;0.98;;
43327;SDS011;28923;45.412;10.852;2022-07-29T12:04:29;1.02;;;0.90;;
43327;SDS011;28923;45.412;10.852;2022-07-29T12:06:55;0.98;;;0.90;;
43327;SDS011;28923;45.412;10.852;2022-07-29T12:09:21;1.75;;;1.05;;
43327;SDS011;28923;45.412;10.852;2022-07-29T12:11:47;1.15;;;0.88;;
43327;SDS011;28923;45.412;10.852;2022-07-29T12:14:32;1.13;;;1.00;;
43327;SDS011;28923;45.412;10.852;2022-07-29T12:16:58;1.00;;;0.90;;
43327;SDS011;28923;45.412;10.852;2022-07-29T12:19:24;1.10;;;1.00;;
43327;SDS011;28923;45.412;10.852;2022-07-29T12:21:50;1.20;;;1.10;;
43327;SDS011;28923;45.412;10.852;2022-07-29T12:24:16;0.93;;;0.80;;
43327;SDS011;28923;45.412;10.852;2022-07-29T12:26:55;1.08;;;1.00;;
43327;SDS011;28923;45.412;10.852;2022-07-29T12:29:21;1.10;;;1.00;;
43327;SDS011;28923;45.412;10.852;2022-07-29T12:31:50;0.80;;;0.80;;
43327;SDS011;28923;45.412;10.852;2022-07-29T12:34:19;1.17;;;1.08;;
43327;SDS011;28923;45.412;10.852;2022-07-29T12:36:44;2.25;;;0.82;;
43327;SDS011;28923;45.412;10.852;2022-07-29T12:39:10;0.93;;;0.90;;
43327;SDS011;28923;45.412;10.852;2022-07-29T12:41:36;1.10;;;0.80;;
43327;SDS011;28923;45.412;10.852;2022-07-29T12:44:02;0.90;;;0.88;;
43327;SDS011;28923;45.412;10.852;2022-07-29T12:46:27;1.00;;;0.90;;
43327;SDS011;28923;45.412;10.852;2022-07-29T12:48:53;1.10;;;1.00;;
43327;SDS011;28923;45.412;10.852;2022-07-29T12:51:28;1.20;;;1.10;;
43327;SDS011;28923;45.412;10.852;2022-07-29T12:54:12;3.42;;;0.90;;
43327;SDS011;28923;45.412;10.852;2022-07-29T12:56:41;4.72;;;1.10;;
43327;SDS011;28923;45.412;10.852;2022-07-29T13:01:38;1.67;;;1.00;;
43327;SDS011;28923;45.412;10.852;2022-07-29T13:04:03;5.70;;;1.00;;
43327;SDS011;28923;45.412;10.852;2022-07-29T13:06:44;1.90;;;0.98;;
43327;SDS011;28923;45.412;10.852;2022-07-29T13:09:11;2.28;;;1.02;;
43327;SDS011;28923;45.412;10.852;2022-07-29T13:14:02;1.80;;;1.23;;
43327;SDS011;28923;45.412;10.852;2022-07-29T13:16:28;1.67;;;1.20;;
43327;SDS011;28923;45.412;10.852;2022-07-29T13:19:03;1.42;;;1.30;;
43327;SDS011;28923;45.412;10.852;2022-07-29T13:21:28;2.28;;;1.20;;
43327;SDS011;28923;45.412;10.852;2022-07-29T13:23:54;2.05;;;1.25;;
43327;SDS011;28923;45.412;10.852;2022-07-29T13:26:19;2.25;;;1.00;;
43327;SDS011;28923;45.412;10.852;2022-07-29T13:28:45;2.13;;;1.25;;
43327;SDS011;28923;45.412;10.852;2022-07-29T13:31:10;2.30;;;1.00;;
43327;SDS011;28923;45.412;10.852;2022-07-29T13:33:35;1.40;;;1.00;;
43327;SDS011;28923;45.412;10.852;2022-07-29T13:36:01;1.55;;;1.10;;
43327;SDS011;28923;45.412;10.852;2022-07-29T13:38:26;2.45;;;1.42;;
43327;SDS011;28923;45.412;10.852;2022-07-29T13:40:52;1.27;;;1.05;;
43327;SDS011;28923;45.412;10.852;2022-07-29T13:43:17;1.63;;;1.15;;
43327;SDS011;28923;45.412;10.852;2022-07-29T13:45:43;2.08;;;1.10;;
43327;SDS011;28923;45.412;10.852;2022-07-29T13:48:08;2.03;;;1.35;;
43327;SDS011;28923;45.412;10.852;2022-07-29T13:50:33;1.85;;;1.30;;
43327;SDS011;28923;45.412;10.852;2022-07-29T13:52:59;3.22;;;1.40;;
43327;SDS011;28923;45.412;10.852;2022-07-29T13:55:24;3.53;;;1.50;;
43327;SDS011;28923;45.412;10.852;2022-07-29T13:57:50;2.95;;;1.17;;
43327;SDS011;28923;45.412;10.852;2022-07-29T14:00:15;2.00;;;1.42;;
43327;SDS011;28923;45.412;10.852;2022-07-29T14:02:41;3.55;;;1.55;;
43327;SDS011;28923;45.412;10.852;2022-07-29T14:05:07;2.55;;;1.50;;
43327;SDS011;28923;45.412;10.852;2022-07-29T14:07:32;2.70;;;1.50;;
43327;SDS011;28923;45.412;10.852;2022-07-29T14:09:58;2.35;;;1.60;;
43327;SDS011;28923;45.412;10.852;2022-07-29T14:12:23;2.22;;;1.70;;
43327;SDS011;28923;45.412;10.852;2022-07-29T14:14:49;1.83;;;1.40;;
43327;SDS011;28923;45.412;10.852;2022-07-29T14:17:14;2.35;;;1.70;;
43327;SDS011;28923;45.412;10.852;2022-07-29T14:19:40;1.85;;;1.75;;
43327;SDS011;28923;45.412;10.852;2022-07-29T14:22:06;6.20;;;1.48;;
43327;SDS011;28923;45.412;10.852;2022-07-29T14:24:32;4.13;;;1.83;;
43327;SDS011;28923;45.412;10.852;2022-07-29T14:26:57;1.75;;;1.50;;
43327;SDS011;28923;45.412;10.852;2022-07-29T14:29:22;3.92;;;1.58;;
43327;SDS011;28923;45.412;10.852;2022-07-29T14:31:48;3.45;;;1.50;;
43327;SDS011;28923;45.412;10.852;2022-07-29T14:34:13;3.28;;;1.55;;
43327;SDS011;28923;45.412;10.852;2022-07-29T14:36:40;1.80;;;1.50;;
43327;SDS011;28923;45.412;10.852;2022-07-29T14:39:05;3.65;;;1.63;;
43327;SDS011;28923;45.412;10.852;2022-07-29T14:41:31;3.53;;;1.67;;
43327;SDS011;28923;45.412;10.852;2022-07-29T14:43:57;7.22;;;1.67;;
43327;SDS011;28923;45.412;10.852;2022-07-29T14:46:25;2.88;;;1.50;;
43327;SDS011;28923;45.412;10.852;2022-07-29T14:48:51;2.97;;;1.70;;
43327;SDS011;28923;45.412;10.852;2022-07-29T14:51:16;4.20;;;1.80;;
43327;SDS011;28923;45.412;10.852;2022-07-29T14:53:42;3.15;;;1.63;;
43327;SDS011;28923;45.412;10.852;2022-07-29T14:56:08;2.92;;;1.80;;
43327;SDS011;28923;45.412;10.852;2022-07-29T14:58:33;3.10;;;1.60;;
43327;SDS011;28923;45.412;10.852;2022-07-29T15:00:59;2.88;;;1.80;;
43327;SDS011;28923;45.412;10.852;2022-07-29T15:03:24;4.03;;;2.30;;
43327;SDS011;28923;45.412;10.852;2022-07-29T15:05:50;2.88;;;1.70;;
43327;SDS011;28923;45.412;10.852;2022-07-29T15:08:15;2.15;;;1.75;;
43327;SDS011;28923;45.412;10.852;2022-07-29T15:10:40;2.33;;;1.40;;
43327;SDS011;28923;45.412;10.852;2022-07-29T15:13:06;4.82;;;2.03;;
43327;SDS011;28923;45.412;10.852;2022-07-29T15:15:31;3.67;;;1.90;;
43327;SDS011;28923;45.412;10.852;2022-07-29T15:17:56;2.42;;;1.70;;